createdAt,value
2023-04-03T00:01:11.745Z,16.95
2023-04-03T00:03:39.531Z,19.25
2023-04-03T00:06:08.063Z,18.92
2023-04-03T00:08:35.970Z,20.85
2023-04-03T00:11:05.861Z,19.02
2023-04-03T00:13:34.309Z,18.75
2023-04-03T00:16:03.108Z,16.98
2023-04-03T00:18:31.272Z,22.92
2023-04-03T00:20:59.196Z,16.23
2023-04-03T00:23:27.060Z,16.33
2023-04-03T00:25:55.670Z,16.77
2023-04-03T00:28:24.896Z,18.58
2023-04-03T00:30:53.436Z,19.95
2023-04-03T00:33:22.777Z,17.48
2023-04-03T00:35:51.086Z,20.20
2023-04-03T00:38:19.440Z,15.35
2023-04-03T00:40:49.825Z,18.67
2023-04-03T00:43:19.855Z,15.63
2023-04-03T00:45:50.533Z,13.73
2023-04-03T00:48:22.183Z,15.80
2023-04-03T00:50:51.506Z,11.93
2023-04-03T00:53:23.994Z,12.57
2023-04-03T00:58:22.670Z,14.60
2023-04-03T01:00:59.197Z,13.38
2023-04-03T01:03:26.911Z,12.23
2023-04-03T01:05:54.748Z,15.85
2023-04-03T01:08:22.549Z,7.97
2023-04-03T01:10:50.221Z,10.48
2023-04-03T01:13:24.794Z,9.93
2023-04-03T01:15:54.119Z,7.22
2023-04-03T01:18:23.765Z,8.18
2023-04-03T01:21:30.839Z,9.10
2023-04-03T01:24:09.673Z,8.07
2023-04-03T01:26:37.790Z,5.88
2023-04-03T01:29:06.193Z,9.10
2023-04-03T01:31:47.024Z,7.32
2023-04-03T01:34:14.874Z,8.20
2023-04-03T01:36:42.957Z,6.03
2023-04-03T01:39:10.853Z,6.28
2023-04-03T01:41:38.870Z,5.82
2023-04-03T01:44:06.973Z,6.95
2023-04-03T01:46:34.806Z,8.00
2023-04-03T01:49:04.343Z,5.32
2023-04-03T01:51:32.569Z,7.80
2023-04-03T01:54:00.257Z,7.05
2023-04-03T01:56:27.973Z,5.28
2023-04-03T01:58:55.693Z,6.80
2023-04-03T02:01:23.610Z,6.28
2023-04-03T02:03:51.392Z,5.47
2023-04-03T02:06:20.475Z,6.93
2023-04-03T02:08:48.355Z,6.95
2023-04-03T02:11:16.190Z,7.15
2023-04-03T02:13:43.880Z,5.90
2023-04-03T02:16:13.421Z,4.50
2023-04-03T02:18:41.435Z,5.88
2023-04-03T02:21:09.257Z,6.00
2023-04-03T02:23:38.526Z,5.57
2023-04-03T02:26:08.646Z,4.85
2023-04-03T02:28:37.419Z,6.55
2023-04-03T02:31:07.256Z,6.90
2023-04-03T02:33:37.008Z,6.70
2023-04-03T02:36:05.778Z,6.03
2023-04-03T02:38:33.718Z,8.80
2023-04-03T02:41:03.897Z,6.07
2023-04-03T02:43:31.715Z,10.63
2023-04-03T02:45:59.589Z,8.23
2023-04-03T02:48:27.954Z,4.13
2023-04-03T02:50:56.202Z,6.65
2023-04-03T02:53:24.486Z,5.47
2023-04-03T02:55:52.524Z,7.20
2023-04-03T02:58:24.741Z,4.95
2023-04-03T03:00:52.621Z,7.28
2023-04-03T03:03:20.537Z,7.60
2023-04-03T03:05:49.077Z,5.32
2023-04-03T03:08:16.889Z,5.22
2023-04-03T03:10:44.631Z,6.25
2023-04-03T03:13:12.373Z,3.88
2023-04-03T03:15:41.493Z,5.93
2023-04-03T03:18:09.230Z,6.57
2023-04-03T03:20:37.280Z,7.30
2023-04-03T03:23:05.334Z,6.85
2023-04-03T03:25:33.155Z,6.80
2023-04-03T03:28:00.991Z,6.95
2023-04-03T03:30:28.725Z,9.73
2023-04-03T03:32:57.948Z,5.45
2023-04-03T03:35:25.964Z,6.57
2023-04-03T03:37:53.677Z,6.13
2023-04-03T03:40:21.548Z,5.80
2023-04-03T03:42:49.295Z,6.70
2023-04-03T03:45:17.167Z,6.18
2023-04-03T03:47:46.600Z,5.85
2023-04-03T03:50:15.782Z,6.72
2023-04-03T03:52:43.446Z,6.15
2023-04-03T03:55:11.340Z,6.50
2023-04-03T03:57:39.221Z,5.22
2023-04-03T04:00:08.336Z,7.25
2023-04-03T04:02:36.237Z,6.10
2023-04-03T04:05:04.318Z,5.32
2023-04-03T04:07:33.605Z,6.45
2023-04-03T04:10:01.497Z,4.93
2023-04-03T04:12:29.356Z,6.57
2023-04-03T04:14:57.078Z,6.75
2023-04-03T04:17:25.413Z,7.93
2023-04-03T04:19:53.184Z,6.57
2023-04-03T04:22:20.994Z,7.93
2023-04-03T04:24:50.110Z,5.55
2023-04-03T04:27:17.932Z,7.13
2023-04-03T04:29:45.696Z,7.20
2023-04-03T04:32:13.444Z,6.25
2023-04-03T04:34:41.307Z,8.98
2023-04-03T04:37:09.183Z,7.22
2023-04-03T04:39:37.041Z,7.35
2023-04-03T04:42:08.066Z,6.45
2023-04-03T04:44:35.935Z,9.30
2023-04-03T04:47:03.721Z,7.03
2023-04-03T04:49:31.464Z,6.85
2023-04-03T04:51:59.219Z,7.60
2023-04-03T04:54:27.079Z,10.15
2023-04-03T04:56:55.452Z,7.35
2023-04-03T04:59:24.648Z,6.20
2023-04-03T05:01:52.469Z,8.05
2023-04-03T05:04:20.358Z,8.23
2023-04-03T05:06:48.670Z,11.35
2023-04-03T05:09:16.474Z,6.00
2023-04-03T05:11:44.281Z,7.25
2023-04-03T05:14:12.111Z,9.82
2023-04-03T05:16:41.242Z,7.00
2023-04-03T05:19:09.005Z,6.47
2023-04-03T05:21:36.916Z,7.57
2023-04-03T05:24:05.249Z,5.47
2023-04-03T05:26:33.974Z,5.55
2023-04-03T05:29:01.728Z,6.70
2023-04-03T05:31:30.598Z,7.53
2023-04-03T05:34:00.234Z,8.60
2023-04-03T05:36:28.031Z,5.55
2023-04-03T05:38:57.287Z,7.97
2023-04-03T05:41:25.903Z,5.68
2023-04-03T05:43:53.730Z,9.57
2023-04-03T05:46:23.303Z,7.72
2023-04-03T05:48:51.428Z,7.53
2023-04-03T05:51:26.872Z,4.28
2023-04-03T05:54:00.929Z,5.70
2023-04-03T05:56:28.780Z,9.07
2023-04-03T05:59:00.429Z,8.45
2023-04-03T06:01:28.421Z,6.47
2023-04-03T06:03:56.902Z,4.93
2023-04-03T06:06:26.407Z,8.02
2023-04-03T06:08:54.357Z,6.53
2023-04-03T06:11:22.911Z,8.77
2023-04-03T06:13:50.721Z,7.07
2023-04-03T06:16:19.508Z,5.13
2023-04-03T06:18:47.270Z,9.23
2023-04-03T06:21:15.003Z,7.57
2023-04-03T06:23:44.146Z,8.32
2023-04-03T06:26:12.151Z,6.97
2023-04-03T06:28:39.819Z,9.95
2023-04-03T06:31:07.576Z,8.60
2023-04-03T06:33:35.916Z,9.20
2023-04-03T06:36:07.496Z,8.75
2023-04-03T06:38:35.895Z,10.77
2023-04-03T06:41:05.543Z,7.78
2023-04-03T06:43:34.583Z,8.73
2023-04-03T06:46:02.965Z,9.43
2023-04-03T06:48:30.899Z,5.30
2023-04-03T06:50:58.873Z,9.75
2023-04-03T06:53:27.139Z,7.65
2023-04-03T06:55:54.862Z,6.88
2023-04-03T06:58:24.075Z,4.55
2023-04-03T07:00:51.776Z,6.82
2023-04-03T07:03:19.754Z,7.07
2023-04-03T07:05:47.464Z,7.25
2023-04-03T07:08:15.646Z,9.32
2023-04-03T07:10:43.665Z,6.80
2023-04-03T07:13:11.958Z,5.97
2023-04-03T07:15:41.100Z,8.18
2023-04-03T07:18:09.310Z,9.15
2023-04-03T07:20:37.333Z,7.93
2023-04-03T07:23:05.190Z,7.63
2023-04-03T07:25:34.781Z,6.68
2023-04-03T07:28:02.883Z,3.70
2023-04-03T07:30:30.743Z,4.95
2023-04-03T07:32:59.871Z,4.65
2023-04-03T07:35:27.642Z,7.88
2023-04-03T07:37:55.367Z,10.55
2023-04-03T07:40:23.140Z,5.60
2023-04-03T07:42:51.217Z,5.38
2023-04-03T07:45:20.017Z,8.15
2023-04-03T07:47:48.891Z,5.25
2023-04-03T07:50:18.736Z,5.97
2023-04-03T07:52:47.379Z,7.18
2023-04-03T07:55:15.482Z,5.40
2023-04-03T07:57:43.515Z,5.38
2023-04-03T08:00:13.157Z,5.55
2023-04-03T08:02:41.039Z,7.85
2023-04-03T08:05:09.661Z,6.68
2023-04-03T08:07:40.280Z,4.60
2023-04-03T08:10:08.981Z,6.40
2023-04-03T08:12:37.851Z,4.75
2023-04-03T08:15:06.573Z,4.32
2023-04-03T08:17:34.506Z,3.17
2023-04-03T08:20:02.533Z,4.53
2023-04-03T08:22:30.294Z,8.30
2023-04-03T08:24:59.852Z,3.45
2023-04-03T08:27:28.492Z,4.47
2023-04-03T08:29:56.334Z,4.20
2023-04-03T08:32:24.162Z,4.18
2023-04-03T08:34:52.154Z,7.60
2023-04-03T08:37:20.144Z,4.40
2023-04-03T08:39:48.758Z,5.28
2023-04-03T08:42:26.536Z,19.55
2023-04-03T08:45:01.109Z,4.43
2023-04-03T08:47:39.014Z,3.10
2023-04-03T08:50:10.847Z,3.65
2023-04-03T08:52:42.869Z,6.80
2023-04-03T08:55:23.552Z,4.88
2023-04-03T08:57:56.770Z,2.80
2023-04-03T09:00:27.558Z,4.07
2023-04-03T09:02:57.111Z,2.53
2023-04-03T09:05:37.166Z,5.20
2023-04-03T09:08:09.746Z,4.30
2023-04-03T09:10:41.742Z,3.78
2023-04-03T09:13:20.201Z,3.65
2023-04-03T09:15:48.153Z,2.05
2023-04-03T09:18:21.723Z,3.55
2023-04-03T09:20:58.374Z,2.78
2023-04-03T09:23:32.600Z,2.53
2023-04-03T09:26:06.022Z,3.42
2023-04-03T09:28:46.889Z,3.03
2023-04-03T09:31:22.205Z,2.17
2023-04-03T09:36:41.561Z,3.50
2023-04-03T09:39:14.292Z,4.50
2023-04-03T09:41:42.559Z,2.53
2023-04-03T09:44:26.695Z,3.50
2023-04-03T09:46:54.839Z,3.78
2023-04-03T09:49:22.677Z,2.67
2023-04-03T09:51:50.521Z,4.25
2023-04-03T09:54:33.618Z,4.78
2023-04-03T09:57:07.025Z,3.15
2023-04-03T09:59:36.765Z,3.95
2023-04-03T10:02:38.509Z,3.13
2023-04-03T10:05:26.701Z,2.58
2023-04-03T10:10:37.180Z,2.58
2023-04-03T10:13:12.249Z,3.38
2023-04-03T10:15:47.478Z,1.92
2023-04-03T10:18:34.741Z,3.08
2023-04-03T10:21:14.550Z,4.38
2023-04-03T10:23:56.820Z,5.63
2023-04-03T10:26:34.866Z,2.67
2023-04-03T10:29:15.733Z,3.67
2023-04-03T10:31:53.334Z,5.25
2023-04-03T10:34:26.292Z,2.35
2023-04-03T10:37:02.005Z,4.07
2023-04-03T10:39:37.396Z,2.25
2023-04-03T10:42:17.151Z,4.38
2023-04-03T10:45:01.393Z,2.03
2023-04-03T10:47:39.382Z,4.50
2023-04-03T10:50:28.630Z,2.10
2023-04-03T10:53:03.665Z,2.97
2023-04-03T10:55:38.263Z,4.45
2023-04-03T10:58:08.780Z,5.13
2023-04-03T11:00:42.155Z,3.30
2023-04-03T11:03:17.201Z,2.55
2023-04-03T11:05:47.110Z,3.00
2023-04-03T11:08:27.328Z,5.43
2023-04-03T11:10:59.527Z,2.60
2023-04-03T11:13:35.463Z,2.17
2023-04-03T11:16:06.602Z,3.60
2023-04-03T11:18:42.753Z,5.70
2023-04-03T11:21:15.059Z,7.38
2023-04-03T11:23:49.606Z,4.15
2023-04-03T11:26:21.904Z,3.03
2023-04-03T11:28:55.042Z,6.68
2023-04-03T11:31:38.490Z,2.58
2023-04-03T11:34:29.037Z,2.35
2023-04-03T11:37:01.242Z,2.97
2023-04-03T11:39:32.997Z,7.07
2023-04-03T11:42:17.359Z,13.43
2023-04-03T11:44:45.227Z,3.10
2023-04-03T11:47:33.870Z,4.57
2023-04-03T11:50:06.439Z,2.55
2023-04-03T11:53:00.228Z,9.35
2023-04-03T11:55:53.503Z,10.60
2023-04-03T11:58:22.191Z,2.55
2023-04-03T12:01:05.308Z,2.60
2023-04-03T12:04:09.032Z,5.30
2023-04-03T12:07:03.940Z,3.13
2023-04-03T12:09:49.549Z,3.33
2023-04-03T12:12:30.731Z,4.80
2023-04-03T12:15:19.995Z,5.65
2023-04-03T12:17:48.102Z,2.50
2023-04-03T12:20:53.125Z,3.78
2023-04-03T12:23:31.570Z,2.83
2023-04-03T12:26:11.958Z,4.18
2023-04-03T12:28:41.692Z,3.28
2023-04-03T12:31:13.675Z,3.25
2023-04-03T12:34:01.412Z,4.18
2023-04-03T12:36:38.744Z,2.58
2023-04-03T12:39:26.209Z,1.95
2023-04-03T12:42:04.697Z,3.22
2023-04-03T12:44:48.328Z,3.17
2023-04-03T12:47:37.197Z,3.22
2023-04-03T12:50:06.936Z,3.17
2023-04-03T12:52:41.805Z,2.28
2023-04-03T12:55:18.838Z,3.08
2023-04-03T12:57:47.091Z,2.72
2023-04-03T13:00:23.625Z,2.83
2023-04-03T13:02:51.555Z,4.20
2023-04-03T13:05:21.642Z,3.60
2023-04-03T13:07:53.738Z,3.05
2023-04-03T13:10:22.955Z,3.80
2023-04-03T13:12:52.707Z,3.13
2023-04-03T13:15:24.029Z,2.95
2023-04-03T13:17:53.731Z,2.95
2023-04-03T13:20:27.152Z,3.85
2023-04-03T13:22:59.708Z,4.82
2023-04-03T13:28:10.539Z,4.82
2023-04-03T13:30:43.255Z,2.53
2023-04-03T13:33:25.637Z,3.60
2023-04-03T13:35:59.069Z,3.17
2023-04-03T13:38:32.379Z,2.35
2023-04-03T13:41:05.403Z,3.78
2023-04-03T13:43:35.847Z,3.80
2023-04-03T13:46:26.073Z,2.92
2023-04-03T13:48:57.382Z,3.35
2023-04-03T13:51:27.882Z,3.50
2023-04-03T13:53:58.450Z,4.75
2023-04-03T13:56:32.852Z,4.45
2023-04-03T13:59:05.853Z,4.00
2023-04-03T14:01:54.281Z,4.63
2023-04-03T14:04:24.567Z,5.80
2023-04-03T14:06:52.712Z,4.53
2023-04-03T14:09:22.492Z,3.42
2023-04-03T14:11:54.457Z,2.45
2023-04-03T14:14:24.742Z,5.60
2023-04-03T14:16:56.218Z,2.95
2023-04-03T14:19:26.274Z,3.10
2023-04-03T14:21:55.424Z,2.50
2023-04-03T14:24:23.771Z,3.25
2023-04-03T14:26:55.555Z,3.58
2023-04-03T14:29:23.957Z,3.65
2023-04-03T14:32:03.600Z,2.92
2023-04-03T14:34:36.187Z,3.05
2023-04-03T14:37:04.059Z,4.88
2023-04-03T14:39:32.248Z,3.17
2023-04-03T14:42:01.437Z,3.90
2023-04-03T14:44:29.516Z,4.18
2023-04-03T14:46:57.948Z,3.00
2023-04-03T14:49:30.328Z,3.75
2023-04-03T14:54:28.964Z,2.80
2023-04-03T14:56:59.106Z,3.80
2023-04-03T14:59:29.331Z,3.90
2023-04-03T15:01:57.083Z,5.85
2023-04-03T15:04:26.306Z,2.85
2023-04-03T15:06:54.792Z,2.55
2023-04-03T15:09:24.752Z,3.42
2023-04-03T15:11:54.062Z,3.78
2023-04-03T15:14:35.386Z,4.30
2023-04-03T15:17:06.978Z,3.97
2023-04-03T15:19:40.014Z,3.83
2023-04-03T15:22:08.002Z,3.03
2023-04-03T15:24:35.837Z,3.25
2023-04-03T15:27:03.865Z,2.80
2023-04-03T15:29:31.698Z,2.55
2023-04-03T15:31:59.822Z,4.35
2023-04-03T15:34:30.219Z,2.85
2023-04-03T15:36:57.970Z,3.53
2023-04-03T15:39:27.296Z,3.60
2023-04-03T15:41:56.113Z,4.78
2023-04-03T15:44:24.157Z,4.03
2023-04-03T15:46:52.388Z,4.65
2023-04-03T15:49:22.005Z,4.28
2023-04-03T15:51:51.722Z,3.97
2023-04-03T15:54:19.585Z,3.90
2023-04-03T15:56:47.339Z,3.80
2023-04-03T15:59:15.079Z,5.15
2023-04-03T16:01:42.998Z,3.10
2023-04-03T16:04:11.517Z,2.40
2023-04-03T16:06:39.981Z,3.83
2023-04-03T16:09:09.599Z,9.20
2023-04-03T16:11:40.339Z,2.45
2023-04-03T16:14:08.353Z,3.20
2023-04-03T16:16:37.250Z,2.97
2023-04-03T16:19:06.333Z,3.45
2023-04-03T16:21:34.849Z,5.65
2023-04-03T16:24:03.376Z,2.65
2023-04-03T16:26:32.581Z,4.45
2023-04-03T16:29:00.339Z,4.18
2023-04-03T16:31:29.298Z,3.03
2023-04-03T16:33:57.629Z,3.72
2023-04-03T16:36:26.814Z,3.53
2023-04-03T16:38:54.740Z,4.70
2023-04-03T16:41:22.619Z,3.55
2023-04-03T16:43:52.152Z,4.90
2023-04-03T16:46:19.949Z,5.68
2023-04-03T16:48:48.192Z,5.07
2023-04-03T16:51:15.981Z,5.88
2023-04-03T16:53:44.782Z,3.25
2023-04-03T16:56:12.885Z,4.07
2023-04-03T16:58:40.702Z,2.53
2023-04-03T17:01:14.579Z,6.57
2023-04-03T17:03:42.460Z,4.03
2023-04-03T17:06:16.782Z,3.58
2023-04-03T17:08:45.040Z,3.25
2023-04-03T17:11:12.855Z,4.55
2023-04-03T17:13:40.706Z,4.10
2023-04-03T17:16:11.806Z,3.25
2023-04-03T17:18:42.674Z,5.05
2023-04-03T17:21:10.713Z,4.03
2023-04-03T17:23:40.488Z,4.10
2023-04-03T17:26:14.302Z,6.10
2023-04-03T17:28:43.507Z,4.53
2023-04-03T17:31:12.036Z,4.85
2023-04-03T17:33:41.244Z,4.38
2023-04-03T17:36:09.768Z,5.57
2023-04-03T17:38:37.877Z,2.95
2023-04-03T17:41:08.028Z,3.90
2023-04-03T17:43:36.846Z,3.65
2023-04-03T17:46:08.778Z,5.93
2023-04-03T17:48:38.320Z,3.50
2023-04-03T17:51:08.200Z,7.90
2023-04-03T17:53:36.035Z,8.07
2023-04-03T17:56:08.091Z,7.13
2023-04-03T17:58:35.921Z,3.28
2023-04-03T18:01:10.322Z,3.90
2023-04-03T18:03:38.371Z,2.85
2023-04-03T18:06:10.759Z,3.25
2023-04-03T18:08:42.275Z,4.25
2023-04-03T18:11:10.678Z,4.88
2023-04-03T18:13:39.055Z,4.82
2023-04-03T18:16:09.427Z,4.07
2023-04-03T18:18:37.858Z,5.50
2023-04-03T18:21:09.641Z,4.78
2023-04-03T18:23:40.649Z,4.82
2023-04-03T18:26:11.384Z,2.35
2023-04-03T18:28:41.961Z,4.00
2023-04-03T18:31:13.426Z,2.78
2023-04-03T18:33:41.636Z,3.33
2023-04-03T18:36:11.977Z,3.67
2023-04-03T18:38:40.024Z,4.28
2023-04-03T18:41:11.759Z,5.00
2023-04-03T18:43:39.562Z,3.92
2023-04-03T18:46:08.180Z,3.63
2023-04-03T18:48:36.610Z,6.47
2023-04-03T18:51:05.999Z,4.90
2023-04-03T18:53:35.415Z,3.03
2023-04-03T18:56:03.347Z,7.60
2023-04-03T18:58:31.743Z,3.67
2023-04-03T19:00:59.818Z,6.32
2023-04-03T19:03:30.104Z,3.53
2023-04-03T19:06:00.786Z,6.65
2023-04-03T19:08:29.087Z,6.00
2023-04-03T19:10:58.346Z,5.00
2023-04-03T19:13:28.000Z,5.90
2023-04-03T19:15:59.059Z,9.82
2023-04-03T19:18:27.323Z,6.93
2023-04-03T19:21:01.292Z,6.50
2023-04-03T19:23:29.035Z,5.70
2023-04-03T19:26:02.365Z,4.28
2023-04-03T19:28:30.495Z,3.97
2023-04-03T19:30:59.179Z,5.28
2023-04-03T19:33:27.482Z,3.45
2023-04-03T19:35:55.655Z,3.67
2023-04-03T19:38:25.193Z,4.28
2023-04-03T19:40:53.669Z,3.92
2023-04-03T19:43:22.968Z,5.35
2023-04-03T19:45:50.844Z,4.32
2023-04-03T19:48:18.668Z,5.32
2023-04-03T19:50:46.401Z,5.05
2023-04-03T19:53:19.286Z,4.70
2023-04-03T19:55:47.186Z,6.28
2023-04-03T19:58:14.890Z,5.38
2023-04-03T20:00:44.370Z,6.93
2023-04-03T20:03:55.568Z,6.50
2023-04-03T20:06:29.435Z,4.38
2023-04-03T20:08:57.146Z,5.53
2023-04-03T20:11:26.600Z,4.90
2023-04-03T20:13:55.940Z,5.38
2023-04-03T20:16:26.084Z,6.20
2023-04-03T20:18:56.236Z,7.03
2023-04-03T20:21:28.696Z,8.27
2023-04-03T20:26:27.195Z,7.65
2023-04-03T20:28:56.880Z,7.18
2023-04-03T20:31:28.092Z,10.00
2023-04-03T20:33:56.853Z,6.97
2023-04-03T20:36:26.550Z,6.47
2023-04-03T20:38:54.426Z,8.13
2023-04-03T20:41:22.579Z,11.10
2023-04-03T20:44:00.666Z,9.88
2023-04-03T20:46:42.156Z,8.15
2023-04-03T20:49:18.371Z,10.40
2023-04-03T20:51:46.074Z,7.40
2023-04-03T20:54:14.670Z,7.63
2023-04-03T20:56:42.666Z,5.97
2023-04-03T20:59:11.502Z,7.15
2023-04-03T21:01:40.895Z,6.13
2023-04-03T21:04:15.763Z,7.57
2023-04-03T21:07:20.737Z,5.43
2023-04-03T21:10:28.265Z,7.57
2023-04-03T21:13:34.270Z,6.35
2023-04-03T21:16:02.247Z,6.20
2023-04-03T21:18:58.285Z,5.55
2023-04-03T21:21:27.470Z,5.88
2023-04-03T21:23:56.455Z,5.25
2023-04-03T21:26:27.621Z,6.80
2023-04-03T21:28:55.888Z,5.82
2023-04-03T21:31:24.456Z,5.95
2023-04-03T21:33:53.698Z,5.32
2023-04-03T21:36:21.715Z,5.85
2023-04-03T21:38:50.071Z,6.75
2023-04-03T21:41:17.847Z,5.90
2023-04-03T21:43:47.035Z,4.90
2023-04-03T21:46:14.845Z,4.45
2023-04-03T21:48:42.617Z,4.70
2023-04-03T21:51:12.058Z,5.35
2023-04-03T21:53:40.771Z,5.78
2023-04-03T21:56:08.957Z,5.28
2023-04-03T21:58:36.846Z,5.60
2023-04-03T22:01:11.648Z,8.25
2023-04-03T22:03:40.935Z,5.43
2023-04-03T22:06:09.296Z,5.38
2023-04-03T22:08:38.791Z,6.00
2023-04-03T22:11:08.173Z,5.05
2023-04-03T22:13:36.406Z,5.43
2023-04-03T22:16:04.605Z,5.20
2023-04-03T22:18:32.635Z,4.55
2023-04-03T22:21:00.516Z,5.40
2023-04-03T22:23:28.298Z,7.72
2023-04-03T22:26:01.668Z,7.40
2023-04-03T22:28:29.939Z,5.22
2023-04-03T22:30:57.728Z,6.55
2023-04-03T22:33:25.551Z,5.57
2023-04-03T22:35:53.824Z,6.47
2023-04-03T22:38:22.480Z,6.72
2023-04-03T22:40:58.664Z,7.07
2023-04-03T22:43:29.605Z,6.10
2023-04-03T22:45:57.885Z,6.55
2023-04-03T22:48:25.925Z,8.23
2023-04-03T22:50:53.921Z,5.75
2023-04-03T22:53:21.773Z,5.88
2023-04-03T22:55:55.688Z,5.88
2023-04-03T22:58:26.001Z,4.88
2023-04-03T23:00:56.678Z,4.88
2023-04-03T23:03:25.724Z,5.68
2023-04-03T23:05:55.993Z,6.38
2023-04-03T23:08:23.936Z,4.35
2023-04-03T23:10:55.151Z,5.35
2023-04-03T23:13:22.901Z,5.88
2023-04-03T23:15:55.190Z,4.63
2023-04-03T23:18:22.960Z,4.85
2023-04-03T23:20:51.897Z,5.47
2023-04-03T23:23:19.892Z,4.93
2023-04-03T23:25:52.656Z,6.40
2023-04-03T23:28:20.860Z,4.55
2023-04-03T23:30:48.851Z,6.55
2023-04-03T23:33:18.036Z,5.13
2023-04-03T23:35:48.600Z,7.13
2023-04-03T23:38:17.557Z,6.32
2023-04-03T23:40:47.063Z,6.80
2023-04-03T23:43:14.922Z,7.35
2023-04-03T23:45:42.796Z,7.22
2023-04-03T23:48:10.692Z,7.03
2023-04-03T23:50:40.130Z,5.63
2023-04-03T23:53:08.503Z,5.95
2023-04-03T23:55:36.839Z,5.13
2023-04-03T23:58:04.685Z,9.52
